Hauptseite
METAR-TAF:

METAR-TAF

Flughäfen :

Flughafen Béziers

Béziers, Frankreich

Breite: 43-19N, Länge: 003-21E, Höhe: 17 m

Beobachtung

Neuester Wetterbericht von vor 25 Minuten, um 04:00 UTC
Wind 5 kt aus West
Temperatur 6°C
Luftfeuchtigkeit 87%
Luftdruck 1008 hPa
Sichtweite 10 km oder mehr
Leicht bewölkt in der Höhe von 4800 ft

METAR: LFMU 170400Z AUTO 26005KT 9999 FEW048 06/04 Q1008 NOSIG

Zeit: 05:25 (04:25 UTC)

Prognose

Neuester Wetterbericht von vor 2 Stunden und 25 Minuten, um 02:00 UTC
Gültige Prognose vom 17 um 03 UTC bis 18 um 03 UTC
Wind 10 kt aus West
Sichtweite 10 km oder mehr
Leicht bewölkt in der Höhe von 5000 ft
Wahrscheinlichkeit 40% :
Zeitweise
vom 17 um 10 UTC bis 17 um 15 UTC
Wind 15 kt aus West
Durchbrochene Bewölkung in der Höhe von 2500 ft, Towering cumulus.
Regenschauer

TAF: LFMU 170200Z 1703/1803 28010KT 9999 FEW050 PROB40 TEMPO 1710/1715 28015KT SHRA BKN025TCU

Wetterbeobachtungen und Prognosen von mehr als 4000 Flughäfen (METAR und TAF Bericht).

Die verfügbaren Stationen werden durch gelbe und rote Markierungen auf der Karte dargestellt.

Führen Sie die Maus auf sie, um den Namen der Station zu sehen.

Darauf klicken, um die Beobachtung von Wetterbeobachtungen und Prognosen zu sehen.

Um die Karte zu ändern : klicken Sie auf den grünen Tasten mit einem schwarzen Kreuz Zum Vergrößern, auf den grünen Button mit einem Gedankenstrich zu verkleinern, oder auf die grünen Pfeile für benachbarte Karten.


METAR-TAF: